sensor_id;sensor_type;location;lat;lon;timestamp;P1;durP1;ratioP1;P2;durP2;ratioP2
46561;SDS011;32289;42.688;23.330;2022-12-29T00:02:10;13.93;;;7.65;;
46561;SDS011;32289;42.688;23.330;2022-12-29T00:05:55;15.75;;;7.55;;
46561;SDS011;32289;42.688;23.330;2022-12-29T00:09:37;15.30;;;7.88;;
46561;SDS011;32289;42.688;23.330;2022-12-29T00:13:19;15.38;;;8.32;;
46561;SDS011;32289;42.688;23.330;2022-12-29T00:17:20;19.02;;;9.88;;
46561;SDS011;32289;42.688;23.330;2022-12-29T00:21:01;20.20;;;9.98;;
46561;SDS011;32289;42.688;23.330;2022-12-29T00:25:00;25.40;;;12.20;;
46561;SDS011;32289;42.688;23.330;2022-12-29T00:29:03;27.15;;;12.35;;
46561;SDS011;32289;42.688;23.330;2022-12-29T00:33:12;21.48;;;9.55;;
46561;SDS011;32289;42.688;23.330;2022-12-29T00:37:13;16.80;;;9.45;;
46561;SDS011;32289;42.688;23.330;2022-12-29T00:40:53;18.08;;;9.82;;
46561;SDS011;32289;42.688;23.330;2022-12-29T00:44:53;17.52;;;9.68;;
46561;SDS011;32289;42.688;23.330;2022-12-29T00:48:33;20.25;;;9.80;;
46561;SDS011;32289;42.688;23.330;2022-12-29T00:52:36;20.30;;;9.40;;
46561;SDS011;32289;42.688;23.330;2022-12-29T00:56:20;21.23;;;8.73;;
46561;SDS011;32289;42.688;23.330;2022-12-29T01:00:01;21.30;;;7.82;;
46561;SDS011;32289;42.688;23.330;2022-12-29T01:03:44;21.95;;;9.38;;
46561;SDS011;32289;42.688;23.330;2022-12-29T01:07:25;18.35;;;9.15;;
46561;SDS011;32289;42.688;23.330;2022-12-29T01:11:09;18.73;;;8.68;;
46561;SDS011;32289;42.688;23.330;2022-12-29T01:14:52;18.98;;;9.05;;
46561;SDS011;32289;42.688;23.330;2022-12-29T01:18:32;19.27;;;9.45;;
46561;SDS011;32289;42.688;23.330;2022-12-29T01:22:14;20.48;;;8.13;;
46561;SDS011;32289;42.688;23.330;2022-12-29T01:25:55;17.80;;;8.43;;
46561;SDS011;32289;42.688;23.330;2022-12-29T01:29:36;15.50;;;7.93;;
46561;SDS011;32289;42.688;23.330;2022-12-29T01:37:18;21.27;;;7.70;;
46561;SDS011;32289;42.688;23.330;2022-12-29T01:40:58;17.45;;;7.88;;
46561;SDS011;32289;42.688;23.330;2022-12-29T01:52:09;13.32;;;5.72;;
46561;SDS011;32289;42.688;23.330;2022-12-29T01:55:59;12.55;;;6.10;;
46561;SDS011;32289;42.688;23.330;2022-12-29T01:59:46;14.43;;;6.88;;
46561;SDS011;32289;42.688;23.330;2022-12-29T02:03:32;14.20;;;6.43;;
46561;SDS011;32289;42.688;23.330;2022-12-29T02:07:17;14.60;;;6.57;;
46561;SDS011;32289;42.688;23.330;2022-12-29T02:11:00;13.45;;;7.05;;
46561;SDS011;32289;42.688;23.330;2022-12-29T02:14:41;12.43;;;7.00;;
46561;SDS011;32289;42.688;23.330;2022-12-29T02:34:10;20.08;;;7.70;;
46561;SDS011;32289;42.688;23.330;2022-12-29T02:42:23;15.27;;;7.82;;
46561;SDS011;32289;42.688;23.330;2022-12-29T02:50:03;14.45;;;6.95;;
46561;SDS011;32289;42.688;23.330;2022-12-29T02:53:46;12.63;;;6.97;;
46561;SDS011;32289;42.688;23.330;2022-12-29T02:57:45;12.00;;;6.18;;
46561;SDS011;32289;42.688;23.330;2022-12-29T03:05:15;14.05;;;6.30;;
46561;SDS011;32289;42.688;23.330;2022-12-29T03:13:39;12.50;;;5.82;;
46561;SDS011;32289;42.688;23.330;2022-12-29T03:21:46;10.75;;;6.05;;
46561;SDS011;32289;42.688;23.330;2022-12-29T03:25:58;15.88;;;6.43;;
46561;SDS011;32289;42.688;23.330;2022-12-29T03:29:46;12.57;;;6.88;;
46561;SDS011;32289;42.688;23.330;2022-12-29T03:33:33;18.45;;;6.57;;
46561;SDS011;32289;42.688;23.330;2022-12-29T03:37:29;19.98;;;7.22;;
46561;SDS011;32289;42.688;23.330;2022-12-29T03:41:17;14.10;;;7.22;;
46561;SDS011;32289;42.688;23.330;2022-12-29T03:45:02;16.02;;;6.57;;
46561;SDS011;32289;42.688;23.330;2022-12-29T03:48:46;14.73;;;7.25;;
46561;SDS011;32289;42.688;23.330;2022-12-29T03:52:27;19.73;;;8.38;;
46561;SDS011;32289;42.688;23.330;2022-12-29T03:56:07;14.88;;;7.65;;
46561;SDS011;32289;42.688;23.330;2022-12-29T03:59:48;15.25;;;7.18;;
46561;SDS011;32289;42.688;23.330;2022-12-29T04:03:29;15.82;;;8.00;;
46561;SDS011;32289;42.688;23.330;2022-12-29T04:07:10;14.63;;;7.60;;
46561;SDS011;32289;42.688;23.330;2022-12-29T04:10:50;12.85;;;5.50;;
46561;SDS011;32289;42.688;23.330;2022-12-29T04:14:31;12.75;;;6.32;;
46561;SDS011;32289;42.688;23.330;2022-12-29T04:18:12;15.30;;;7.18;;
46561;SDS011;32289;42.688;23.330;2022-12-29T04:21:53;12.88;;;8.38;;
46561;SDS011;32289;42.688;23.330;2022-12-29T04:25:34;15.93;;;7.57;;
46561;SDS011;32289;42.688;23.330;2022-12-29T04:29:14;16.98;;;8.25;;
46561;SDS011;32289;42.688;23.330;2022-12-29T04:32:55;19.80;;;7.60;;
46561;SDS011;32289;42.688;23.330;2022-12-29T04:36:36;13.85;;;7.38;;
46561;SDS011;32289;42.688;23.330;2022-12-29T04:40:16;13.70;;;7.40;;
46561;SDS011;32289;42.688;23.330;2022-12-29T04:43:57;14.93;;;7.85;;
46561;SDS011;32289;42.688;23.330;2022-12-29T04:47:38;17.25;;;8.07;;
46561;SDS011;32289;42.688;23.330;2022-12-29T04:51:19;17.92;;;8.65;;
46561;SDS011;32289;42.688;23.330;2022-12-29T04:54:59;11.68;;;7.55;;
46561;SDS011;32289;42.688;23.330;2022-12-29T04:58:40;14.18;;;7.75;;
46561;SDS011;32289;42.688;23.330;2022-12-29T05:02:24;24.55;;;8.05;;
46561;SDS011;32289;42.688;23.330;2022-12-29T05:06:05;15.20;;;7.22;;
46561;SDS011;32289;42.688;23.330;2022-12-29T05:09:45;16.90;;;7.80;;
46561;SDS011;32289;42.688;23.330;2022-12-29T05:13:26;25.30;;;7.95;;
46561;SDS011;32289;42.688;23.330;2022-12-29T05:21:44;18.20;;;7.82;;
46561;SDS011;32289;42.688;23.330;2022-12-29T05:25:24;13.82;;;6.75;;
46561;SDS011;32289;42.688;23.330;2022-12-29T05:29:05;17.65;;;7.65;;
46561;SDS011;32289;42.688;23.330;2022-12-29T05:32:46;13.25;;;7.13;;
46561;SDS011;32289;42.688;23.330;2022-12-29T05:36:27;14.43;;;5.93;;
46561;SDS011;32289;42.688;23.330;2022-12-29T05:40:07;16.63;;;7.90;;
46561;SDS011;32289;42.688;23.330;2022-12-29T05:43:48;14.98;;;7.18;;
46561;SDS011;32289;42.688;23.330;2022-12-29T05:47:29;16.20;;;8.48;;
46561;SDS011;32289;42.688;23.330;2022-12-29T05:55:47;17.40;;;9.63;;
46561;SDS011;32289;42.688;23.330;2022-12-29T05:59:31;22.88;;;12.93;;
46561;SDS011;32289;42.688;23.330;2022-12-29T06:03:12;25.17;;;8.77;;
46561;SDS011;32289;42.688;23.330;2022-12-29T06:06:52;16.48;;;9.15;;
46561;SDS011;32289;42.688;23.330;2022-12-29T06:10:33;14.60;;;6.95;;
46561;SDS011;32289;42.688;23.330;2022-12-29T06:14:14;18.67;;;8.57;;
46561;SDS011;32289;42.688;23.330;2022-12-29T06:17:54;19.48;;;8.98;;
46561;SDS011;32289;42.688;23.330;2022-12-29T06:21:36;24.63;;;9.27;;
46561;SDS011;32289;42.688;23.330;2022-12-29T06:25:17;22.05;;;9.38;;
46561;SDS011;32289;42.688;23.330;2022-12-29T06:28:58;19.60;;;9.90;;
46561;SDS011;32289;42.688;23.330;2022-12-29T06:32:39;14.85;;;8.15;;
46561;SDS011;32289;42.688;23.330;2022-12-29T06:36:19;13.82;;;6.55;;
46561;SDS011;32289;42.688;23.330;2022-12-29T06:40:00;18.58;;;7.88;;
46561;SDS011;32289;42.688;23.330;2022-12-29T06:43:42;14.55;;;6.82;;
46561;SDS011;32289;42.688;23.330;2022-12-29T06:47:22;14.55;;;8.07;;
46561;SDS011;32289;42.688;23.330;2022-12-29T06:51:03;13.10;;;6.15;;
46561;SDS011;32289;42.688;23.330;2022-12-29T06:54:44;14.00;;;6.75;;
46561;SDS011;32289;42.688;23.330;2022-12-29T06:58:25;16.00;;;7.28;;
46561;SDS011;32289;42.688;23.330;2022-12-29T07:02:05;15.85;;;8.52;;
46561;SDS011;32289;42.688;23.330;2022-12-29T07:05:46;12.95;;;8.27;;
46561;SDS011;32289;42.688;23.330;2022-12-29T07:09:28;17.95;;;8.70;;
46561;SDS011;32289;42.688;23.330;2022-12-29T07:13:09;19.63;;;9.13;;
46561;SDS011;32289;42.688;23.330;2022-12-29T07:16:52;22.13;;;9.65;;
46561;SDS011;32289;42.688;23.330;2022-12-29T07:20:33;17.25;;;9.30;;
46561;SDS011;32289;42.688;23.330;2022-12-29T07:24:14;22.85;;;10.18;;
46561;SDS011;32289;42.688;23.330;2022-12-29T07:27:55;20.42;;;10.45;;
46561;SDS011;32289;42.688;23.330;2022-12-29T07:31:38;24.55;;;9.82;;
46561;SDS011;32289;42.688;23.330;2022-12-29T07:35:18;27.30;;;10.70;;
46561;SDS011;32289;42.688;23.330;2022-12-29T07:39:00;22.75;;;9.52;;
46561;SDS011;32289;42.688;23.330;2022-12-29T07:42:41;22.98;;;10.65;;
46561;SDS011;32289;42.688;23.330;2022-12-29T07:46:22;22.38;;;9.60;;
46561;SDS011;32289;42.688;23.330;2022-12-29T07:50:05;18.73;;;9.00;;
46561;SDS011;32289;42.688;23.330;2022-12-29T07:53:46;21.48;;;10.05;;
46561;SDS011;32289;42.688;23.330;2022-12-29T07:57:27;21.63;;;9.13;;
46561;SDS011;32289;42.688;23.330;2022-12-29T08:01:07;20.35;;;9.52;;
46561;SDS011;32289;42.688;23.330;2022-12-29T08:04:48;20.70;;;8.80;;
46561;SDS011;32289;42.688;23.330;2022-12-29T08:08:29;17.83;;;9.00;;
46561;SDS011;32289;42.688;23.330;2022-12-29T08:12:10;14.35;;;7.82;;
46561;SDS011;32289;42.688;23.330;2022-12-29T08:15:50;21.52;;;8.02;;
46561;SDS011;32289;42.688;23.330;2022-12-29T08:19:31;19.05;;;9.27;;
46561;SDS011;32289;42.688;23.330;2022-12-29T08:23:11;20.02;;;9.57;;
46561;SDS011;32289;42.688;23.330;2022-12-29T08:26:52;14.95;;;8.23;;
46561;SDS011;32289;42.688;23.330;2022-12-29T08:30:34;17.27;;;9.32;;
46561;SDS011;32289;42.688;23.330;2022-12-29T08:34:16;19.83;;;8.60;;
46561;SDS011;32289;42.688;23.330;2022-12-29T08:37:56;18.58;;;8.00;;
46561;SDS011;32289;42.688;23.330;2022-12-29T08:41:37;18.05;;;8.68;;
46561;SDS011;32289;42.688;23.330;2022-12-29T08:45:18;16.50;;;8.40;;
46561;SDS011;32289;42.688;23.330;2022-12-29T08:48:59;26.45;;;8.70;;
46561;SDS011;32289;42.688;23.330;2022-12-29T08:52:39;18.90;;;8.82;;
46561;SDS011;32289;42.688;23.330;2022-12-29T08:56:20;23.38;;;9.25;;
46561;SDS011;32289;42.688;23.330;2022-12-29T09:00:03;23.25;;;9.68;;
46561;SDS011;32289;42.688;23.330;2022-12-29T09:03:45;18.23;;;9.75;;
46561;SDS011;32289;42.688;23.330;2022-12-29T09:07:26;18.50;;;8.63;;
46561;SDS011;32289;42.688;23.330;2022-12-29T09:11:14;20.52;;;10.45;;
46561;SDS011;32289;42.688;23.330;2022-12-29T09:15:00;18.35;;;9.88;;
46561;SDS011;32289;42.688;23.330;2022-12-29T09:18:40;21.00;;;9.30;;
46561;SDS011;32289;42.688;23.330;2022-12-29T09:22:23;21.25;;;9.98;;
46561;SDS011;32289;42.688;23.330;2022-12-29T09:26:03;20.20;;;9.85;;
46561;SDS011;32289;42.688;23.330;2022-12-29T09:29:45;16.63;;;9.40;;
46561;SDS011;32289;42.688;23.330;2022-12-29T09:33:26;16.30;;;9.18;;
46561;SDS011;32289;42.688;23.330;2022-12-29T09:37:07;18.52;;;9.45;;
46561;SDS011;32289;42.688;23.330;2022-12-29T09:40:49;18.13;;;9.55;;
46561;SDS011;32289;42.688;23.330;2022-12-29T09:48:32;20.13;;;10.57;;
46561;SDS011;32289;42.688;23.330;2022-12-29T09:52:23;20.58;;;9.85;;
46561;SDS011;32289;42.688;23.330;2022-12-29T09:56:30;20.23;;;10.80;;
46561;SDS011;32289;42.688;23.330;2022-12-29T10:00:14;17.30;;;9.15;;
46561;SDS011;32289;42.688;23.330;2022-12-29T10:04:00;17.50;;;9.15;;
46561;SDS011;32289;42.688;23.330;2022-12-29T10:27:12;13.05;;;8.27;;
46561;SDS011;32289;42.688;23.330;2022-12-29T10:30:55;16.35;;;9.25;;
46561;SDS011;32289;42.688;23.330;2022-12-29T10:34:43;19.20;;;9.35;;
46561;SDS011;32289;42.688;23.330;2022-12-29T10:42:38;17.67;;;10.13;;
46561;SDS011;32289;42.688;23.330;2022-12-29T10:50:07;14.65;;;8.60;;
46561;SDS011;32289;42.688;23.330;2022-12-29T10:53:59;14.68;;;9.02;;
46561;SDS011;32289;42.688;23.330;2022-12-29T10:57:46;17.73;;;9.18;;
46561;SDS011;32289;42.688;23.330;2022-12-29T11:01:31;19.10;;;9.63;;
46561;SDS011;32289;42.688;23.330;2022-12-29T11:09:36;15.30;;;8.70;;
46561;SDS011;32289;42.688;23.330;2022-12-29T11:13:24;14.63;;;8.98;;
46561;SDS011;32289;42.688;23.330;2022-12-29T11:17:09;15.60;;;9.10;;
46561;SDS011;32289;42.688;23.330;2022-12-29T11:20:57;37.40;;;15.35;;
46561;SDS011;32289;42.688;23.330;2022-12-29T11:24:46;18.88;;;10.45;;
46561;SDS011;32289;42.688;23.330;2022-12-29T11:28:28;21.80;;;12.48;;
46561;SDS011;32289;42.688;23.330;2022-12-29T11:35:57;14.48;;;9.32;;
46561;SDS011;32289;42.688;23.330;2022-12-29T11:43:59;20.25;;;9.70;;
46561;SDS011;32289;42.688;23.330;2022-12-29T11:47:45;15.45;;;9.18;;
46561;SDS011;32289;42.688;23.330;2022-12-29T11:51:29;15.23;;;8.52;;
46561;SDS011;32289;42.688;23.330;2022-12-29T11:55:23;14.57;;;8.20;;
46561;SDS011;32289;42.688;23.330;2022-12-29T12:03:16;14.38;;;8.20;;
46561;SDS011;32289;42.688;23.330;2022-12-29T12:07:11;23.20;;;8.85;;
46561;SDS011;32289;42.688;23.330;2022-12-29T12:10:56;14.90;;;8.48;;
46561;SDS011;32289;42.688;23.330;2022-12-29T12:14:49;16.77;;;9.02;;
46561;SDS011;32289;42.688;23.330;2022-12-29T12:22:36;15.48;;;8.82;;
46561;SDS011;32289;42.688;23.330;2022-12-29T12:26:22;15.73;;;8.60;;
46561;SDS011;32289;42.688;23.330;2022-12-29T12:30:20;16.27;;;8.27;;
46561;SDS011;32289;42.688;23.330;2022-12-29T12:34:03;17.60;;;8.55;;
46561;SDS011;32289;42.688;23.330;2022-12-29T12:45:55;17.63;;;8.45;;
46561;SDS011;32289;42.688;23.330;2022-12-29T12:50:03;16.20;;;8.02;;
46561;SDS011;32289;42.688;23.330;2022-12-29T12:54:08;16.48;;;8.25;;
46561;SDS011;32289;42.688;23.330;2022-12-29T12:58:16;13.45;;;7.97;;
46561;SDS011;32289;42.688;23.330;2022-12-29T13:22:26;17.75;;;8.77;;
46561;SDS011;32289;42.688;23.330;2022-12-29T13:26:22;17.55;;;7.88;;
46561;SDS011;32289;42.688;23.330;2022-12-29T13:30:15;17.23;;;9.02;;
46561;SDS011;32289;42.688;23.330;2022-12-29T13:34:09;14.48;;;7.70;;
46561;SDS011;32289;42.688;23.330;2022-12-29T13:37:57;28.42;;;8.88;;
46561;SDS011;32289;42.688;23.330;2022-12-29T13:42:00;18.17;;;8.50;;
46561;SDS011;32289;42.688;23.330;2022-12-29T13:45:43;16.23;;;7.75;;
46561;SDS011;32289;42.688;23.330;2022-12-29T13:49:25;17.98;;;8.50;;
46561;SDS011;32289;42.688;23.330;2022-12-29T13:53:24;16.40;;;8.27;;
46561;SDS011;32289;42.688;23.330;2022-12-29T13:57:24;17.27;;;9.45;;
46561;SDS011;32289;42.688;23.330;2022-12-29T14:13:23;22.45;;;9.65;;
46561;SDS011;32289;42.688;23.330;2022-12-29T14:17:12;18.17;;;8.48;;
46561;SDS011;32289;42.688;23.330;2022-12-29T14:21:07;21.10;;;9.20;;
46561;SDS011;32289;42.688;23.330;2022-12-29T14:24:59;19.90;;;9.50;;
46561;SDS011;32289;42.688;23.330;2022-12-29T14:28:41;19.02;;;8.32;;
46561;SDS011;32289;42.688;23.330;2022-12-29T14:36:19;17.42;;;9.10;;
46561;SDS011;32289;42.688;23.330;2022-12-29T14:40:38;17.92;;;8.85;;
46561;SDS011;32289;42.688;23.330;2022-12-29T14:44:19;23.85;;;9.60;;
46561;SDS011;32289;42.688;23.330;2022-12-29T14:48:00;26.50;;;10.57;;
46561;SDS011;32289;42.688;23.330;2022-12-29T14:52:07;13.20;;;7.47;;
46561;SDS011;32289;42.688;23.330;2022-12-29T14:55:55;18.70;;;9.90;;
46561;SDS011;32289;42.688;23.330;2022-12-29T14:59:38;27.50;;;13.43;;
46561;SDS011;32289;42.688;23.330;2022-12-29T15:03:20;35.20;;;14.75;;
46561;SDS011;32289;42.688;23.330;2022-12-29T15:07:06;17.58;;;8.65;;
46561;SDS011;32289;42.688;23.330;2022-12-29T15:10:53;25.80;;;10.48;;
46561;SDS011;32289;42.688;23.330;2022-12-29T15:14:39;23.90;;;10.60;;
46561;SDS011;32289;42.688;23.330;2022-12-29T15:18:30;29.65;;;11.38;;
46561;SDS011;32289;42.688;23.330;2022-12-29T15:22:12;21.73;;;11.60;;
46561;SDS011;32289;42.688;23.330;2022-12-29T15:25:59;31.55;;;11.63;;
46561;SDS011;32289;42.688;23.330;2022-12-29T15:29:42;25.98;;;11.25;;
46561;SDS011;32289;42.688;23.330;2022-12-29T15:33:26;26.20;;;11.68;;
46561;SDS011;32289;42.688;23.330;2022-12-29T15:37:08;21.00;;;9.82;;
46561;SDS011;32289;42.688;23.330;2022-12-29T15:40:51;23.30;;;9.07;;
46561;SDS011;32289;42.688;23.330;2022-12-29T15:44:40;19.25;;;9.00;;
46561;SDS011;32289;42.688;23.330;2022-12-29T15:48:24;33.20;;;12.85;;
46561;SDS011;32289;42.688;23.330;2022-12-29T15:52:08;30.23;;;11.68;;
46561;SDS011;32289;42.688;23.330;2022-12-29T15:55:49;25.02;;;11.07;;
46561;SDS011;32289;42.688;23.330;2022-12-29T15:59:33;25.95;;;11.40;;
46561;SDS011;32289;42.688;23.330;2022-12-29T16:03:14;26.38;;;10.05;;
46561;SDS011;32289;42.688;23.330;2022-12-29T16:07:01;22.05;;;10.35;;
46561;SDS011;32289;42.688;23.330;2022-12-29T16:10:46;23.88;;;10.38;;
46561;SDS011;32289;42.688;23.330;2022-12-29T16:14:29;22.20;;;9.38;;
46561;SDS011;32289;42.688;23.330;2022-12-29T16:18:24;27.65;;;10.82;;
46561;SDS011;32289;42.688;23.330;2022-12-29T16:22:12;21.13;;;11.60;;
46561;SDS011;32289;42.688;23.330;2022-12-29T16:26:04;29.52;;;10.30;;
46561;SDS011;32289;42.688;23.330;2022-12-29T16:29:58;26.80;;;11.93;;
46561;SDS011;32289;42.688;23.330;2022-12-29T16:33:56;29.23;;;11.40;;
46561;SDS011;32289;42.688;23.330;2022-12-29T16:37:37;25.23;;;10.35;;
46561;SDS011;32289;42.688;23.330;2022-12-29T16:41:30;27.40;;;10.60;;
46561;SDS011;32289;42.688;23.330;2022-12-29T16:48:58;19.55;;;10.00;;
46561;SDS011;32289;42.688;23.330;2022-12-29T16:52:39;33.17;;;13.57;;
46561;SDS011;32289;42.688;23.330;2022-12-29T16:56:20;34.10;;;13.68;;
46561;SDS011;32289;42.688;23.330;2022-12-29T17:00:07;45.20;;;17.10;;
46561;SDS011;32289;42.688;23.330;2022-12-29T17:04:00;25.17;;;13.77;;
46561;SDS011;32289;42.688;23.330;2022-12-29T17:07:51;40.63;;;16.70;;
46561;SDS011;32289;42.688;23.330;2022-12-29T17:11:33;33.08;;;16.33;;
46561;SDS011;32289;42.688;23.330;2022-12-29T17:15:32;43.05;;;18.95;;
46561;SDS011;32289;42.688;23.330;2022-12-29T17:19:18;44.58;;;20.77;;
46561;SDS011;32289;42.688;23.330;2022-12-29T17:23:01;44.78;;;20.58;;
46561;SDS011;32289;42.688;23.330;2022-12-29T17:26:42;47.35;;;20.23;;
46561;SDS011;32289;42.688;23.330;2022-12-29T17:30:25;48.75;;;22.98;;
46561;SDS011;32289;42.688;23.330;2022-12-29T17:34:07;54.15;;;22.75;;
46561;SDS011;32289;42.688;23.330;2022-12-29T17:37:52;47.53;;;21.15;;
46561;SDS011;32289;42.688;23.330;2022-12-29T17:41:33;53.90;;;21.38;;
46561;SDS011;32289;42.688;23.330;2022-12-29T17:45:16;64.30;;;23.52;;
46561;SDS011;32289;42.688;23.330;2022-12-29T17:49:00;51.30;;;21.25;;
46561;SDS011;32289;42.688;23.330;2022-12-29T17:52:41;46.83;;;20.20;;
46561;SDS011;32289;42.688;23.330;2022-12-29T17:56:23;51.00;;;20.30;;
46561;SDS011;32289;42.688;23.330;2022-12-29T18:00:04;44.35;;;19.42;;
46561;SDS011;32289;42.688;23.330;2022-12-29T18:03:45;40.20;;;17.92;;
46561;SDS011;32289;42.688;23.330;2022-12-29T18:07:27;38.38;;;17.40;;
46561;SDS011;32289;42.688;23.330;2022-12-29T18:11:19;40.80;;;19.27;;
46561;SDS011;32289;42.688;23.330;2022-12-29T18:15:05;48.75;;;20.00;;
46561;SDS011;32289;42.688;23.330;2022-12-29T18:18:55;55.40;;;20.08;;
46561;SDS011;32289;42.688;23.330;2022-12-29T18:22:36;54.75;;;21.50;;
46561;SDS011;32289;42.688;23.330;2022-12-29T18:29:59;45.92;;;19.20;;
46561;SDS011;32289;42.688;23.330;2022-12-29T18:33:39;42.83;;;17.95;;
46561;SDS011;32289;42.688;23.330;2022-12-29T18:37:20;44.92;;;19.30;;
46561;SDS011;32289;42.688;23.330;2022-12-29T18:41:01;51.30;;;18.75;;
46561;SDS011;32289;42.688;23.330;2022-12-29T18:44:42;35.88;;;16.52;;
46561;SDS011;32289;42.688;23.330;2022-12-29T18:48:22;34.72;;;16.33;;
46561;SDS011;32289;42.688;23.330;2022-12-29T18:52:03;42.13;;;15.80;;
46561;SDS011;32289;42.688;23.330;2022-12-29T18:55:44;35.03;;;15.23;;
46561;SDS011;32289;42.688;23.330;2022-12-29T18:59:25;36.90;;;15.82;;
46561;SDS011;32289;42.688;23.330;2022-12-29T19:03:06;35.55;;;15.75;;
46561;SDS011;32289;42.688;23.330;2022-12-29T19:06:46;41.78;;;17.13;;
46561;SDS011;32289;42.688;23.330;2022-12-29T19:10:27;33.63;;;15.55;;
46561;SDS011;32289;42.688;23.330;2022-12-29T19:14:12;33.58;;;15.93;;
46561;SDS011;32289;42.688;23.330;2022-12-29T19:17:56;36.13;;;14.65;;
46561;SDS011;32289;42.688;23.330;2022-12-29T19:21:38;34.72;;;14.07;;
46561;SDS011;32289;42.688;23.330;2022-12-29T19:25:19;31.25;;;15.27;;
46561;SDS011;32289;42.688;23.330;2022-12-29T19:29:00;33.05;;;14.68;;
46561;SDS011;32289;42.688;23.330;2022-12-29T19:32:41;29.88;;;13.88;;
46561;SDS011;32289;42.688;23.330;2022-12-29T19:36:21;36.20;;;17.40;;
46561;SDS011;32289;42.688;23.330;2022-12-29T19:40:02;30.33;;;11.95;;
46561;SDS011;32289;42.688;23.330;2022-12-29T19:43:43;28.70;;;11.13;;
46561;SDS011;32289;42.688;23.330;2022-12-29T19:47:24;28.70;;;12.77;;
46561;SDS011;32289;42.688;23.330;2022-12-29T19:51:06;38.95;;;16.98;;
46561;SDS011;32289;42.688;23.330;2022-12-29T19:54:49;29.50;;;12.60;;
46561;SDS011;32289;42.688;23.330;2022-12-29T19:58:30;34.05;;;13.70;;
46561;SDS011;32289;42.688;23.330;2022-12-29T20:02:28;26.90;;;13.90;;
46561;SDS011;32289;42.688;23.330;2022-12-29T20:06:11;23.17;;;11.90;;
46561;SDS011;32289;42.688;23.330;2022-12-29T20:09:52;38.67;;;15.93;;
46561;SDS011;32289;42.688;23.330;2022-12-29T20:13:33;24.75;;;10.90;;
46561;SDS011;32289;42.688;23.330;2022-12-29T20:17:15;28.40;;;11.55;;
46561;SDS011;32289;42.688;23.330;2022-12-29T20:21:02;22.17;;;11.05;;
46561;SDS011;32289;42.688;23.330;2022-12-29T20:24:45;28.58;;;11.73;;
46561;SDS011;32289;42.688;23.330;2022-12-29T20:28:26;33.75;;;13.77;;
46561;SDS011;32289;42.688;23.330;2022-12-29T20:32:12;28.77;;;11.85;;
46561;SDS011;32289;42.688;23.330;2022-12-29T20:36:05;26.92;;;11.65;;
46561;SDS011;32289;42.688;23.330;2022-12-29T20:39:48;30.10;;;12.55;;
46561;SDS011;32289;42.688;23.330;2022-12-29T20:43:29;24.35;;;11.40;;
46561;SDS011;32289;42.688;23.330;2022-12-29T20:47:09;27.63;;;10.70;;
46561;SDS011;32289;42.688;23.330;2022-12-29T20:50:50;25.83;;;11.88;;
46561;SDS011;32289;42.688;23.330;2022-12-29T20:54:32;28.30;;;11.73;;
46561;SDS011;32289;42.688;23.330;2022-12-29T20:58:13;31.60;;;12.82;;
46561;SDS011;32289;42.688;23.330;2022-12-29T21:01:55;32.38;;;12.38;;
46561;SDS011;32289;42.688;23.330;2022-12-29T21:05:36;39.75;;;13.30;;
46561;SDS011;32289;42.688;23.330;2022-12-29T21:09:17;26.58;;;13.95;;
46561;SDS011;32289;42.688;23.330;2022-12-29T21:12:59;27.60;;;12.07;;
46561;SDS011;32289;42.688;23.330;2022-12-29T21:16:40;25.52;;;12.18;;
46561;SDS011;32289;42.688;23.330;2022-12-29T21:20:21;29.27;;;13.13;;
46561;SDS011;32289;42.688;23.330;2022-12-29T21:24:09;30.17;;;11.75;;
46561;SDS011;32289;42.688;23.330;2022-12-29T21:27:49;25.02;;;11.95;;
46561;SDS011;32289;42.688;23.330;2022-12-29T21:31:33;28.55;;;12.52;;
46561;SDS011;32289;42.688;23.330;2022-12-29T21:35:14;33.00;;;12.57;;
46561;SDS011;32289;42.688;23.330;2022-12-29T21:38:55;33.22;;;12.98;;
46561;SDS011;32289;42.688;23.330;2022-12-29T21:42:37;32.28;;;14.52;;
46561;SDS011;32289;42.688;23.330;2022-12-29T21:46:21;38.22;;;15.70;;
46561;SDS011;32289;42.688;23.330;2022-12-29T21:50:02;40.45;;;17.17;;
46561;SDS011;32289;42.688;23.330;2022-12-29T21:53:43;41.60;;;18.65;;
46561;SDS011;32289;42.688;23.330;2022-12-29T21:57:24;38.55;;;17.13;;
46561;SDS011;32289;42.688;23.330;2022-12-29T22:01:23;42.57;;;16.77;;
46561;SDS011;32289;42.688;23.330;2022-12-29T22:05:23;49.08;;;19.48;;
46561;SDS011;32289;42.688;23.330;2022-12-29T22:09:23;38.83;;;14.40;;
46561;SDS011;32289;42.688;23.330;2022-12-29T22:13:22;46.80;;;18.45;;
46561;SDS011;32289;42.688;23.330;2022-12-29T22:17:02;40.25;;;17.33;;
46561;SDS011;32289;42.688;23.330;2022-12-29T22:20:43;38.30;;;19.17;;
46561;SDS011;32289;42.688;23.330;2022-12-29T22:24:24;40.50;;;19.17;;
46561;SDS011;32289;42.688;23.330;2022-12-29T22:28:04;46.30;;;20.00;;
46561;SDS011;32289;42.688;23.330;2022-12-29T22:31:45;56.72;;;24.50;;
46561;SDS011;32289;42.688;23.330;2022-12-29T22:35:26;58.78;;;24.50;;
46561;SDS011;32289;42.688;23.330;2022-12-29T22:39:07;68.15;;;25.70;;
46561;SDS011;32289;42.688;23.330;2022-12-29T22:42:49;58.65;;;27.90;;
46561;SDS011;32289;42.688;23.330;2022-12-29T22:46:30;52.05;;;23.58;;
46561;SDS011;32289;42.688;23.330;2022-12-29T22:50:10;48.50;;;22.33;;
46561;SDS011;32289;42.688;23.330;2022-12-29T22:53:51;53.90;;;22.73;;
46561;SDS011;32289;42.688;23.330;2022-12-29T22:57:32;44.47;;;20.80;;
46561;SDS011;32289;42.688;23.330;2022-12-29T23:01:14;37.38;;;18.77;;
46561;SDS011;32289;42.688;23.330;2022-12-29T23:04:57;40.72;;;17.05;;
46561;SDS011;32289;42.688;23.330;2022-12-29T23:08:38;45.72;;;17.35;;
46561;SDS011;32289;42.688;23.330;2022-12-29T23:12:19;47.55;;;19.83;;
46561;SDS011;32289;42.688;23.330;2022-12-29T23:16:01;50.47;;;21.08;;
46561;SDS011;32289;42.688;23.330;2022-12-29T23:19:42;47.83;;;20.27;;
46561;SDS011;32289;42.688;23.330;2022-12-29T23:23:22;44.00;;;20.13;;
46561;SDS011;32289;42.688;23.330;2022-12-29T23:27:21;45.42;;;20.42;;
46561;SDS011;32289;42.688;23.330;2022-12-29T23:31:02;45.15;;;21.27;;
46561;SDS011;32289;42.688;23.330;2022-12-29T23:34:43;59.38;;;23.48;;
46561;SDS011;32289;42.688;23.330;2022-12-29T23:38:24;51.92;;;21.70;;
46561;SDS011;32289;42.688;23.330;2022-12-29T23:42:05;45.13;;;22.17;;
46561;SDS011;32289;42.688;23.330;2022-12-29T23:45:45;48.95;;;21.98;;
46561;SDS011;32289;42.688;23.330;2022-12-29T23:49:26;46.55;;;19.65;;
46561;SDS011;32289;42.688;23.330;2022-12-29T23:53:07;57.00;;;20.77;;
46561;SDS011;32289;42.688;23.330;2022-12-29T23:56:53;51.55;;;22.27;;
